Thatta, Pakistan
Current Conditions -  °F | °C
As of 8:55 AM on Saturday 25 Oct 2014 (Local Time) from OPKC Reporting Station
Clear Clear  
Wind Chill: 26°   Ceiling: Unl
Heat Index: 26°   Visibility: 4mi
Dew Point:   Wind: 5mph
Humidity: 26%   Direction: 30°NNE
Pressure: 29.91"   Gusts: NA
Location:  24.75°N, 67.92°E
Report Text: OPKC 250355Z 03004KT 6000 NSC 26/05 Q1013 NOSIG
Loading
Personal Weather Stations






























Interactive Weather Map
Tropical Storm Tracking
New forecast layout! Learn more

10-Day Weather Forecast

Advertisements
Track Severe Weather on mobile